Princeton, Louisiana
Current Conditions -  °F | °C
As of 3:58 PM on Monday 20 Oct 2014 (Local Time) from KBAD Reporting Station
Clear Clear  
Wind Chill: 79°   Ceiling: Unl
Heat Index: 79°   Visibility: 10mi
Dew Point: 48°   Wind: 2mph
Humidity: 34%   Direction: NA
Pressure: 30.03"   Gusts: NA
Location:  32.59°N, 93.52°W
Report Text: KBAD 202058Z AUTO VRB02KT 10SM CLR 26/09 A3003 RMK AO2 SLP171 T02590089 57018
Loading
Personal Weather Stations






























Interactive Weather Map
Tropical Storm Tracking
New forecast layout! Learn more

10-Day Weather Forecast

Advertisements
Track Severe Weather on mobile